Time,TemperatureF,DewpointF,PressureIn,WindDirection,WindDirectionDegrees,WindSpeedMPH,WindSpeedGustMPH,Humidity,HourlyPrecipIn,Conditions,Clouds,dailyrainin,SoftwareType,DateUTC
2013-01-19 00:03:00,32.4,31.2,30.04,North,0,0.0,0.0,95,0.00,,,0.00,WUHU216HW,2013-01-19 08:03:00,
2013-01-19 00:08:00,32.4,31.2,30.04,North,0,0.0,0.0,95,0.00,,,0.00,WUHU216HW,2013-01-19 08:08:00,
2013-01-19 00:13:00,32.2,31.0,30.04,North,0,0.0,0.0,95,0.00,,,0.00,WUHU216HW,2013-01-19 08:13:00,
2013-01-19 00:18:00,32.2,31.0,30.04,North,0,0.0,0.0,95,0.00,,,0.00,WUHU216HW,2013-01-19 08:18:00,
2013-01-19 00:23:00,32.2,31.0,30.04,North,0,0.0,0.0,95,0.00,,,0.00,WUHU216HW,2013-01-19 08:23:00,
2013-01-19 00:28:00,32.2,31.0,30.04,North,0,0.0,0.0,95,0.00,,,0.00,WUHU216HW,2013-01-19 08:28:00,
2013-01-19 00:33:00,32.2,31.0,30.04,North,0,0.0,0.0,95,0.00,,,0.00,WUHU216HW,2013-01-19 08:33:00,
2013-01-19 00:38:00,32.4,31.2,30.04,North,0,0.0,0.0,95,0.00,,,0.00,WUHU216HW,2013-01-19 08:38:00,
2013-01-19 00:43:00,32.2,31.0,30.04,North,0,0.0,0.0,95,0.00,,,0.00,WUHU216HW,2013-01-19 08:43:00,
2013-01-19 00:48:00,32.2,31.0,30.04,North,0,0.0,0.0,95,0.00,,,0.00,WUHU216HW,2013-01-19 08:48:00,
2013-01-19 00:53:00,32.2,31.0,30.04,North,0,0.0,0.0,95,0.00,,,0.00,WUHU216HW,2013-01-19 08:53:00,
2013-01-19 00:58:00,32.2,31.0,30.04,North,0,0.0,0.0,95,0.00,,,0.00,WUHU216HW,2013-01-19 08:58:00,
2013-01-19 01:03:00,32.2,31.0,30.03,North,0,0.0,0.0,95,0.00,,,0.00,WUHU216HW,2013-01-19 09:03:00,
2013-01-19 01:08:00,32.2,31.0,30.03,North,0,0.0,0.0,95,0.00,,,0.00,WUHU216HW,2013-01-19 09:08:00,
2013-01-19 01:13:00,32.0,30.8,30.03,North,0,0.0,0.0,95,0.00,,,0.00,WUHU216HW,2013-01-19 09:13:00,
2013-01-19 01:18:00,32.0,30.8,30.03,North,0,0.0,0.0,95,0.00,,,0.00,WUHU216HW,2013-01-19 09:18:00,
2013-01-19 01:23:00,32.0,30.8,30.04,North,0,0.0,0.0,95,0.00,,,0.00,WUHU216HW,2013-01-19 09:23:00,
2013-01-19 01:28:00,32.0,30.8,30.04,North,0,0.0,0.0,95,0.00,,,0.00,WUHU216HW,2013-01-19 09:28:00,
2013-01-19 01:33:00,31.9,30.6,30.03,North,0,0.0,0.0,95,0.00,,,0.00,WUHU216HW,2013-01-19 09:33:00,
2013-01-19 01:38:00,32.0,30.8,30.04,North,0,0.0,0.0,95,0.00,,,0.00,WUHU216HW,2013-01-19 09:38:00,
2013-01-19 01:43:00,31.9,30.6,30.04,North,0,0.0,0.0,95,0.00,,,0.00,WUHU216HW,2013-01-19 09:43:00,
2013-01-19 01:48:00,31.9,30.6,30.04,North,0,0.0,0.0,95,0.00,,,0.00,WUHU216HW,2013-01-19 09:48:00,
2013-01-19 01:53:00,31.9,30.6,30.04,North,0,0.0,0.0,95,0.00,,,0.00,WUHU216HW,2013-01-19 09:53:00,
2013-01-19 01:58:00,31.9,30.6,30.04,North,0,0.0,0.0,95,0.00,,,0.00,WUHU216HW,2013-01-19 09:58:00,
2013-01-19 02:03:00,31.9,30.6,30.04,North,0,0.0,0.0,95,0.00,,,0.00,WUHU216HW,2013-01-19 10:03:00,
2013-01-19 02:08:00,31.9,30.6,30.04,North,0,0.0,0.0,95,0.00,,,0.00,WUHU216HW,2013-01-19 10:08:00,
2013-01-19 02:13:00,31.9,30.6,30.04,North,0,0.0,0.0,95,0.00,,,0.00,WUHU216HW,2013-01-19 10:13:00,
2013-01-19 02:18:00,31.9,30.6,30.04,North,0,0.0,0.0,95,0.00,,,0.00,WUHU216HW,2013-01-19 10:18:00,
2013-01-19 02:23:00,31.7,30.4,30.04,North,0,0.0,0.0,95,0.00,,,0.00,WUHU216HW,2013-01-19 10:23:00,
2013-01-19 02:28:00,31.5,30.2,30.04,North,0,0.0,0.0,95,0.00,,,0.00,WUHU216HW,2013-01-19 10:28:00,
2013-01-19 02:33:00,31.5,30.2,30.04,North,0,0.0,0.0,95,0.00,,,0.00,WUHU216HW,2013-01-19 10:33:00,
2013-01-19 02:38:00,31.7,30.4,30.04,North,0,0.0,0.0,95,0.00,,,0.00,WUHU216HW,2013-01-19 10:38:00,
2013-01-19 02:43:00,31.7,30.4,30.04,North,0,0.0,0.0,95,0.00,,,0.00,WUHU216HW,2013-01-19 10:43:00,
2013-01-19 02:48:00,31.7,30.4,30.04,North,0,0.0,0.0,95,0.00,,,0.00,WUHU216HW,2013-01-19 10:48:00,
2013-01-19 02:53:00,31.7,30.4,30.04,North,0,0.0,0.0,95,0.00,,,0.00,WUHU216HW,2013-01-19 10:53:00,
2013-01-19 02:58:00,31.7,30.4,30.04,North,0,0.0,0.0,95,0.00,,,0.00,WUHU216HW,2013-01-19 10:58:00,
2013-01-19 03:03:00,31.5,30.2,30.04,North,0,0.0,0.0,95,0.00,,,0.00,WUHU216HW,2013-01-19 11:03:00,
2013-01-19 03:08:00,31.5,30.2,30.04,North,0,0.0,0.0,95,0.00,,,0.00,WUHU216HW,2013-01-19 11:08:00,
2013-01-19 03:13:00,31.5,30.2,30.04,North,0,0.0,0.0,95,0.00,,,0.00,WUHU216HW,2013-01-19 11:13:00,
2013-01-19 03:14:00,31.7,30.4,30.04,North,0,0.0,0.0,95,0.00,,,0.00,WUHU216HW,2013-01-19 11:14:00,
2013-01-19 03:16:00,31.5,30.2,30.04,North,0,0.0,0.0,95,0.00,,,0.00,WUHU216HW,2013-01-19 11:16:00,
2013-01-19 03:17:00,31.5,30.2,30.04,North,0,0.0,0.0,95,0.00,,,0.00,WUHU216HW,2013-01-19 11:17:00,
2013-01-19 03:19:00,31.5,30.2,30.04,North,0,0.0,0.0,95,0.00,,,0.00,WUHU216HW,2013-01-19 11:19:00,
2013-01-19 03:22:00,31.3,30.1,30.04,North,0,0.0,0.0,95,0.00,,,0.00,WUHU216HW,2013-01-19 11:22:00,
2013-01-19 03:25:00,31.3,30.1,30.04,North,0,0.0,0.0,95,0.00,,,0.00,WUHU216HW,2013-01-19 11:25:00,
2013-01-19 03:26:00,31.3,30.1,30.04,North,0,0.0,0.0,95,0.00,,,0.00,WUHU216HW,2013-01-19 11:26:00,
2013-01-19 03:31:00,31.1,29.9,30.04,North,0,0.0,0.0,95,0.00,,,0.00,WUHU216HW,2013-01-19 11:31:00,
2013-01-19 03:32:00,31.1,29.9,30.04,North,0,0.0,0.0,95,0.00,,,0.00,WUHU216HW,2013-01-19 11:32:00,
2013-01-19 03:35:00,31.1,29.9,30.04,North,0,0.0,0.0,95,0.00,,,0.00,WUHU216HW,2013-01-19 11:35:00,
2013-01-19 03:37:00,31.1,29.9,30.04,North,0,0.0,0.0,95,0.00,,,0.00,WUHU216HW,2013-01-19 11:37:00,
2013-01-19 03:38:00,31.0,29.7,30.04,North,0,0.0,0.0,95,0.00,,,0.00,WUHU216HW,2013-01-19 11:38:00,
2013-01-19 03:40:00,31.0,29.7,30.04,North,0,0.0,0.0,95,0.00,,,0.00,WUHU216HW,2013-01-19 11:40:00,
2013-01-19 03:41:00,31.0,29.7,30.04,North,0,0.0,0.0,95,0.00,,,0.00,WUHU216HW,2013-01-19 11:41:00,
2013-01-19 03:43:00,31.0,29.7,30.04,North,0,0.0,0.0,95,0.00,,,0.00,WUHU216HW,2013-01-19 11:43:00,
2013-01-19 03:44:00,30.8,29.5,30.04,North,0,0.0,0.0,95,0.00,,,0.00,WUHU216HW,2013-01-19 11:44:00,
2013-01-19 03:46:00,30.8,29.5,30.04,North,0,0.0,0.0,95,0.00,,,0.00,WUHU216HW,2013-01-19 11:46:00,
2013-01-19 03:47:00,30.8,29.5,30.04,North,0,0.0,0.0,95,0.00,,,0.00,WUHU216HW,2013-01-19 11:47:00,
2013-01-19 03:49:00,30.8,29.5,30.04,North,0,0.0,0.0,95,0.00,,,0.00,WUHU216HW,2013-01-19 11:49:00,
2013-01-19 03:50:00,30.8,29.5,30.04,North,0,0.0,0.0,95,0.00,,,0.00,WUHU216HW,2013-01-19 11:50:00,
2013-01-19 03:52:00,30.8,29.5,30.04,North,0,0.0,0.0,95,0.00,,,0.00,WUHU216HW,2013-01-19 11:52:00,
2013-01-19 03:53:00,30.8,29.5,30.04,North,0,0.0,0.0,95,0.00,,,0.00,WUHU216HW,2013-01-19 11:53:00,
2013-01-19 03:55:00,30.8,29.5,30.04,North,0,0.0,0.0,95,0.00,,,0.00,WUHU216HW,2013-01-19 11:55:00,
2013-01-19 03:56:00,30.8,29.5,30.04,North,0,0.0,0.0,95,0.00,,,0.00,WUHU216HW,2013-01-19 11:56:00,
2013-01-19 03:58:00,30.8,29.5,30.04,North,0,0.0,0.0,95,0.00,,,0.00,WUHU216HW,2013-01-19 11:58:00,
2013-01-19 03:59:00,30.6,29.3,30.04,North,0,0.0,0.0,95,0.00,,,0.00,WUHU216HW,2013-01-19 11:59:00,
2013-01-19 04:01:00,30.6,29.3,30.04,North,0,0.0,0.0,95,0.00,,,0.00,WUHU216HW,2013-01-19 12:01:00,
2013-01-19 04:04:00,30.6,29.3,30.04,North,0,0.0,0.0,95,0.00,,,0.00,WUHU216HW,2013-01-19 12:04:00,
2013-01-19 04:05:00,30.6,29.3,30.04,North,0,0.0,0.0,95,0.00,,,0.00,WUHU216HW,2013-01-19 12:05:00,
2013-01-19 04:07:00,30.6,29.3,30.04,North,0,0.0,0.0,95,0.00,,,0.00,WUHU216HW,2013-01-19 12:07:00,
2013-01-19 04:08:00,30.6,29.3,30.04,North,0,0.0,0.0,95,0.00,,,0.00,WUHU216HW,2013-01-19 12:08:00,
2013-01-19 04:10:00,30.6,29.3,30.04,North,0,0.0,0.0,95,0.00,,,0.00,WUHU216HW,2013-01-19 12:10:00,
2013-01-19 04:11:00,30.6,29.3,30.04,North,0,0.0,0.0,95,0.00,,,0.00,WUHU216HW,2013-01-19 12:11:00,
2013-01-19 04:13:00,30.4,29.2,30.04,North,0,0.0,0.0,95,0.00,,,0.00,WUHU216HW,2013-01-19 12:13:00,
2013-01-19 04:14:00,30.6,29.3,30.04,North,0,0.0,0.0,95,0.00,,,0.00,WUHU216HW,2013-01-19 12:14:00,
2013-01-19 04:16:00,30.4,29.2,30.04,North,0,0.0,0.0,95,0.00,,,0.00,WUHU216HW,2013-01-19 12:16:00,
2013-01-19 04:17:00,30.6,29.3,30.04,North,0,0.0,0.0,95,0.00,,,0.00,WUHU216HW,2013-01-19 12:17:00,
2013-01-19 04:19:00,30.6,29.3,30.04,North,0,0.0,0.0,95,0.00,,,0.00,WUHU216HW,2013-01-19 12:19:00,
2013-01-19 04:20:00,30.4,29.2,30.04,North,0,0.0,0.0,95,0.00,,,0.00,WUHU216HW,2013-01-19 12:20:00,
2013-01-19 04:22:00,30.4,29.2,30.04,North,0,0.0,0.0,95,0.00,,,0.00,WUHU216HW,2013-01-19 12:22:00,
2013-01-19 04:23:00,30.4,29.2,30.04,North,0,0.0,0.0,95,0.00,,,0.00,WUHU216HW,2013-01-19 12:23:00,
2013-01-19 04:25:00,30.4,29.2,30.04,North,0,0.0,0.0,95,0.00,,,0.00,WUHU216HW,2013-01-19 12:25:00,
2013-01-19 04:26:00,30.4,29.2,30.04,North,0,0.0,0.0,95,0.00,,,0.00,WUHU216HW,2013-01-19 12:26:00,
2013-01-19 04:28:00,30.4,29.2,30.04,North,0,0.0,0.0,95,0.00,,,0.00,WUHU216HW,2013-01-19 12:28:00,
2013-01-19 04:31:00,30.4,29.2,30.04,North,0,0.0,0.0,95,0.00,,,0.00,WUHU216HW,2013-01-19 12:31:00,
2013-01-19 04:32:00,30.2,29.0,30.04,North,0,0.0,0.0,95,0.00,,,0.00,WUHU216HW,2013-01-19 12:32:00,
2013-01-19 04:34:00,30.2,29.0,30.04,North,0,0.0,0.0,95,0.00,,,0.00,WUHU216HW,2013-01-19 12:34:00,
2013-01-19 04:35:00,30.2,29.0,30.04,North,0,0.0,0.0,95,0.00,,,0.00,WUHU216HW,2013-01-19 12:35:00,
2013-01-19 04:37:00,30.2,29.0,30.04,North,0,0.0,0.0,95,0.00,,,0.00,WUHU216HW,2013-01-19 12:37:00,
2013-01-19 04:38:00,30.1,28.8,30.04,North,0,0.0,0.0,95,0.00,,,0.00,WUHU216HW,2013-01-19 12:38:00,
2013-01-19 04:47:00,30.1,28.8,30.04,North,0,0.0,0.0,95,0.00,,,0.00,WUHU216HW,2013-01-19 12:47:00,
2013-01-19 04:48:00,30.1,28.8,30.04,North,0,0.0,0.0,95,0.00,,,0.00,WUHU216HW,2013-01-19 12:48:00,
2013-01-19 04:53:00,30.1,28.8,30.05,North,0,0.0,0.0,95,0.00,,,0.00,WUHU216HW,2013-01-19 12:53:00,
2013-01-19 04:58:00,29.9,28.6,30.05,North,0,0.0,0.0,95,0.00,,,0.00,WUHU216HW,2013-01-19 12:58:00,
2013-01-19 05:03:00,29.9,28.6,30.05,North,0,0.0,0.0,95,0.00,,,0.00,WUHU216HW,2013-01-19 13:03:00,
2013-01-19 05:08:00,29.9,28.6,30.05,North,0,0.0,0.0,95,0.00,,,0.00,WUHU216HW,2013-01-19 13:08:00,
2013-01-19 05:13:00,29.9,28.6,30.04,North,0,0.0,0.0,95,0.00,,,0.00,WUHU216HW,2013-01-19 13:13:00,
2013-01-19 05:18:00,29.9,28.6,30.05,North,0,0.0,0.0,95,0.00,,,0.00,WUHU216HW,2013-01-19 13:18:00,
2013-01-19 05:23:00,29.9,28.6,30.05,North,0,0.0,0.0,95,0.00,,,0.00,WUHU216HW,2013-01-19 13:23:00,
2013-01-19 05:28:00,29.9,28.6,30.05,North,0,0.0,0.0,95,0.00,,,0.00,WUHU216HW,2013-01-19 13:28:00,
2013-01-19 05:33:00,29.7,28.4,30.05,North,0,0.0,0.0,95,0.00,,,0.00,WUHU216HW,2013-01-19 13:33:00,
2013-01-19 05:38:00,29.9,28.6,30.05,North,0,0.0,0.0,95,0.00,,,0.00,WUHU216HW,2013-01-19 13:38:00,
2013-01-19 05:43:00,29.7,28.4,30.04,North,0,0.0,0.0,95,0.00,,,0.00,WUHU216HW,2013-01-19 13:43:00,
2013-01-19 05:48:00,29.7,28.4,30.04,North,0,0.0,0.0,95,0.00,,,0.00,WUHU216HW,2013-01-19 13:48:00,
2013-01-19 05:53:00,29.5,28.3,30.04,North,0,0.0,0.0,95,0.00,,,0.00,WUHU216HW,2013-01-19 13:53:00,
2013-01-19 05:58:00,29.5,28.3,30.05,North,0,0.0,0.0,95,0.00,,,0.00,WUHU216HW,2013-01-19 13:58:00,
2013-01-19 06:03:00,29.7,28.4,30.05,North,0,0.0,0.0,95,0.00,,,0.00,WUHU216HW,2013-01-19 14:03:00,
2013-01-19 06:08:00,29.7,28.4,30.05,North,0,0.0,0.0,95,0.00,,,0.00,WUHU216HW,2013-01-19 14:08:00,
2013-01-19 06:13:00,29.7,28.4,30.05,North,0,0.0,0.0,95,0.00,,,0.00,WUHU216HW,2013-01-19 14:13:00,
2013-01-19 06:18:00,29.7,28.4,30.05,North,0,0.0,0.0,95,0.00,,,0.00,WUHU216HW,2013-01-19 14:18:00,
2013-01-19 06:23:00,29.7,28.4,30.05,North,0,0.0,0.0,95,0.00,,,0.00,WUHU216HW,2013-01-19 14:23:00,
2013-01-19 06:28:00,29.5,28.3,30.05,North,0,0.0,0.0,95,0.00,,,0.00,WUHU216HW,2013-01-19 14:28:00,
2013-01-19 06:33:00,29.3,28.1,30.05,North,0,0.0,0.0,95,0.00,,,0.00,WUHU216HW,2013-01-19 14:33:00,
2013-01-19 06:38:00,29.2,27.9,30.05,North,0,0.0,0.0,95,0.00,,,0.00,WUHU216HW,2013-01-19 14:38:00,
2013-01-19 06:43:00,29.0,27.7,30.05,North,0,0.0,0.0,95,0.00,,,0.00,WUHU216HW,2013-01-19 14:43:00,
2013-01-19 06:48:00,29.2,27.9,30.05,North,0,0.0,0.0,95,0.00,,,0.00,WUHU216HW,2013-01-19 14:48:00,
2013-01-19 06:53:00,29.2,27.9,30.04,North,0,0.0,0.0,95,0.00,,,0.00,WUHU216HW,2013-01-19 14:53:00,
2013-01-19 06:58:00,29.2,27.9,30.05,North,0,0.0,0.0,95,0.00,,,0.00,WUHU216HW,2013-01-19 14:58:00,
2013-01-19 07:03:00,29.0,27.7,30.05,North,0,0.0,0.0,95,0.00,,,0.00,WUHU216HW,2013-01-19 15:03:00,
2013-01-19 07:08:00,29.0,27.7,30.05,North,0,0.0,0.0,95,0.00,,,0.00,WUHU216HW,2013-01-19 15:08:00,
2013-01-19 07:13:00,28.8,27.5,30.05,North,0,0.0,0.0,95,0.00,,,0.00,WUHU216HW,2013-01-19 15:13:00,
2013-01-19 07:18:00,28.8,27.5,30.05,North,0,0.0,0.0,95,0.00,,,0.00,WUHU216HW,2013-01-19 15:18:00,
2013-01-19 07:23:00,28.8,27.5,30.05,North,0,0.0,0.0,95,0.00,,,0.00,WUHU216HW,2013-01-19 15:23:00,
2013-01-19 07:28:00,28.8,27.3,30.05,North,0,0.0,0.0,94,0.00,,,0.00,WUHU216HW,2013-01-19 15:28:00,
2013-01-19 07:33:00,28.8,27.3,30.05,North,0,0.0,0.0,94,0.00,,,0.00,WUHU216HW,2013-01-19 15:33:00,
2013-01-19 07:38:00,28.6,27.1,30.05,North,0,0.0,0.0,94,0.00,,,0.00,WUHU216HW,2013-01-19 15:38:00,
2013-01-19 07:43:00,28.6,27.1,30.05,North,0,0.0,0.0,94,0.00,,,0.00,WUHU216HW,2013-01-19 15:43:00,
2013-01-19 07:48:00,28.6,27.1,30.05,North,0,0.0,0.0,94,0.00,,,0.00,WUHU216HW,2013-01-19 15:48:00,
2013-01-19 07:53:00,28.8,27.5,30.05,North,0,0.0,0.0,95,0.00,,,0.00,WUHU216HW,2013-01-19 15:53:00,
2013-01-19 07:58:00,29.0,27.7,30.05,North,0,0.0,0.0,95,0.00,,,0.00,WUHU216HW,2013-01-19 15:58:00,
2013-01-19 08:03:00,29.2,27.9,30.05,North,0,0.0,0.0,95,0.00,,,0.00,WUHU216HW,2013-01-19 16:03:00,
2013-01-19 08:08:00,29.0,27.7,30.06,North,0,0.0,0.0,95,0.00,,,0.00,WUHU216HW,2013-01-19 16:08:00,
2013-01-19 08:13:00,28.8,27.5,30.06,North,0,0.0,0.0,95,0.00,,,0.00,WUHU216HW,2013-01-19 16:13:00,
2013-01-19 08:18:00,28.8,27.5,30.06,North,0,0.0,0.0,95,0.00,,,0.00,WUHU216HW,2013-01-19 16:18:00,
2013-01-19 08:23:00,28.8,27.5,30.06,North,0,0.0,0.0,95,0.00,,,0.00,WUHU216HW,2013-01-19 16:23:00,
2013-01-19 08:28:00,29.0,27.7,30.07,North,0,0.0,0.0,95,0.00,,,0.00,WUHU216HW,2013-01-19 16:28:00,
2013-01-19 08:33:00,29.0,27.7,30.07,North,0,0.0,0.0,95,0.00,,,0.00,WUHU216HW,2013-01-19 16:33:00,
2013-01-19 08:38:00,29.2,27.9,30.07,North,0,0.0,0.0,95,0.00,,,0.00,WUHU216HW,2013-01-19 16:38:00,
2013-01-19 08:43:00,29.2,27.9,30.07,North,0,0.0,0.0,95,0.00,,,0.00,WUHU216HW,2013-01-19 16:43:00,
2013-01-19 08:48:00,29.2,27.9,30.07,North,0,0.0,0.0,95,0.00,,,0.00,WUHU216HW,2013-01-19 16:48:00,
2013-01-19 08:53:00,29.2,27.9,30.07,North,0,0.0,0.0,95,0.00,,,0.00,WUHU216HW,2013-01-19 16:53:00,
2013-01-19 08:58:00,29.2,27.9,30.07,North,0,0.0,0.0,95,0.00,,,0.00,WUHU216HW,2013-01-19 16:58:00,
2013-01-19 09:03:00,29.2,27.9,30.07,North,0,0.0,0.0,95,0.00,,,0.00,WUHU216HW,2013-01-19 17:03:00,
2013-01-19 09:08:00,29.0,27.7,30.07,North,0,0.0,0.0,95,0.00,,,0.00,WUHU216HW,2013-01-19 17:08:00,
2013-01-19 09:14:00,29.0,27.7,30.08,North,0,0.0,0.0,95,0.00,,,0.00,WUHU216HW,2013-01-19 17:14:00,
2013-01-19 09:19:00,28.8,27.5,30.08,North,0,0.0,0.0,95,0.00,,,0.00,WUHU216HW,2013-01-19 17:19:00,
2013-01-19 09:24:00,29.0,27.7,30.08,North,0,0.0,0.0,95,0.00,,,0.00,WUHU216HW,2013-01-19 17:24:00,
2013-01-19 09:29:00,29.2,27.9,30.08,North,0,0.0,0.0,95,0.00,,,0.00,WUHU216HW,2013-01-19 17:29:00,
2013-01-19 09:34:00,29.5,28.3,30.08,North,0,0.0,0.0,95,0.00,,,0.00,WUHU216HW,2013-01-19 17:34:00,
2013-01-19 09:39:00,29.5,28.3,30.08,North,0,0.0,0.0,95,0.00,,,0.00,WUHU216HW,2013-01-19 17:39:00,
2013-01-19 09:44:00,29.3,28.1,30.08,North,0,0.0,0.0,95,0.00,,,0.00,WUHU216HW,2013-01-19 17:44:00,
2013-01-19 09:50:00,29.2,27.9,30.08,North,0,0.0,0.0,95,0.00,,,0.00,WUHU216HW,2013-01-19 17:50:00,
2013-01-19 09:55:00,29.5,28.3,30.08,North,0,0.0,0.0,95,0.00,,,0.00,WUHU216HW,2013-01-19 17:55:00,
2013-01-19 10:00:00,29.9,28.6,30.08,North,0,0.0,0.0,95,0.00,,,0.00,WUHU216HW,2013-01-19 18:00:00,
2013-01-19 10:05:00,29.9,28.6,30.08,North,0,0.0,0.0,95,0.00,,,0.00,WUHU216HW,2013-01-19 18:05:00,
2013-01-19 10:10:00,29.9,28.6,30.08,North,0,0.0,0.0,95,0.00,,,0.00,WUHU216HW,2013-01-19 18:10:00,
2013-01-19 10:15:00,29.9,28.6,30.08,North,0,0.0,0.0,95,0.00,,,0.00,WUHU216HW,2013-01-19 18:15:00,
2013-01-19 10:20:00,30.2,29.0,30.08,North,0,0.0,0.0,95,0.00,,,0.00,WUHU216HW,2013-01-19 18:20:00,
2013-01-19 10:25:00,30.2,29.0,30.08,North,0,0.0,0.0,95,0.00,,,0.00,WUHU216HW,2013-01-19 18:25:00,
2013-01-19 10:30:00,30.2,29.0,30.08,North,0,0.0,0.0,95,0.00,,,0.00,WUHU216HW,2013-01-19 18:30:00,
2013-01-19 10:35:00,30.1,28.8,30.08,North,0,0.0,0.0,95,0.00,,,0.00,WUHU216HW,2013-01-19 18:35:00,
2013-01-19 10:41:00,29.9,28.6,30.08,North,0,0.0,0.0,95,0.00,,,0.00,WUHU216HW,2013-01-19 18:41:00,
2013-01-19 10:46:00,30.1,28.8,30.08,North,0,0.0,0.0,95,0.00,,,0.00,WUHU216HW,2013-01-19 18:46:00,
2013-01-19 10:51:00,30.2,29.0,30.08,North,0,0.0,0.0,95,0.00,,,0.00,WUHU216HW,2013-01-19 18:51:00,
2013-01-19 10:56:00,30.4,29.2,30.07,North,0,0.0,0.0,95,0.00,,,0.00,WUHU216HW,2013-01-19 18:56:00,
2013-01-19 11:01:00,30.2,29.0,30.07,North,0,0.0,0.0,95,0.00,,,0.00,WUHU216HW,2013-01-19 19:01:00,
2013-01-19 11:06:00,30.2,29.0,30.07,North,0,0.0,0.0,95,0.00,,,0.00,WUHU216HW,2013-01-19 19:06:00,
2013-01-19 11:11:00,30.2,29.0,30.07,North,0,0.0,0.0,95,0.00,,,0.00,WUHU216HW,2013-01-19 19:11:00,
2013-01-19 11:17:00,30.2,29.0,30.07,North,0,0.0,0.0,95,0.00,,,0.00,WUHU216HW,2013-01-19 19:17:00,
2013-01-19 11:22:00,30.4,29.2,30.07,North,0,0.0,0.0,95,0.00,,,0.00,WUHU216HW,2013-01-19 19:22:00,
2013-01-19 11:27:00,30.6,29.3,30.07,North,0,0.0,0.0,95,0.00,,,0.00,WUHU216HW,2013-01-19 19:27:00,
2013-01-19 11:32:00,30.8,29.5,30.06,North,0,0.0,0.0,95,0.00,,,0.00,WUHU216HW,2013-01-19 19:32:00,
2013-01-19 11:37:00,31.3,30.1,30.06,North,0,0.0,0.0,95,0.00,,,0.00,WUHU216HW,2013-01-19 19:37:00,
2013-01-19 11:42:00,31.5,30.2,30.06,North,0,0.0,0.0,95,0.00,,,0.00,WUHU216HW,2013-01-19 19:42:00,
2013-01-19 11:47:00,31.3,30.1,30.06,North,0,0.0,0.0,95,0.00,,,0.00,WUHU216HW,2013-01-19 19:47:00,
2013-01-19 11:53:00,31.3,30.1,30.06,North,0,0.0,0.0,95,0.00,,,0.00,WUHU216HW,2013-01-19 19:53:00,
2013-01-19 11:58:00,31.5,30.2,30.06,North,0,0.0,0.0,95,0.00,,,0.00,WUHU216HW,2013-01-19 19:58:00,
2013-01-19 12:03:00,31.5,30.2,30.05,North,0,0.0,0.0,95,0.00,,,0.00,WUHU216HW,2013-01-19 20:03:00,
2013-01-19 12:08:00,31.5,30.2,30.05,North,0,0.0,0.0,95,0.00,,,0.00,WUHU216HW,2013-01-19 20:08:00,
2013-01-19 12:13:00,31.7,30.4,30.06,North,0,0.0,0.0,95,0.00,,,0.00,WUHU216HW,2013-01-19 20:13:00,
2013-01-19 12:18:00,31.9,30.6,30.05,North,0,0.0,0.0,95,0.00,,,0.00,WUHU216HW,2013-01-19 20:18:00,
2013-01-19 12:23:00,31.9,30.6,30.05,North,0,0.0,0.0,95,0.00,,,0.00,WUHU216HW,2013-01-19 20:23:00,
2013-01-19 12:28:00,31.9,30.6,30.05,North,0,0.0,0.0,95,0.00,,,0.00,WUHU216HW,2013-01-19 20:28:00,
2013-01-19 12:33:00,31.9,30.6,30.05,North,0,0.0,0.0,95,0.00,,,0.00,WUHU216HW,2013-01-19 20:33:00,
2013-01-19 12:38:00,32.0,30.8,30.05,North,0,0.0,0.0,95,0.00,,,0.00,WUHU216HW,2013-01-19 20:38:00,
2013-01-19 12:43:00,32.2,31.0,30.05,North,0,0.0,0.0,95,0.00,,,0.00,WUHU216HW,2013-01-19 20:43:00,
2013-01-19 12:48:00,32.4,31.2,30.05,North,0,0.0,0.0,95,0.00,,,0.00,WUHU216HW,2013-01-19 20:48:00,
2013-01-19 12:53:00,32.0,30.8,30.05,North,0,0.0,0.0,95,0.00,,,0.00,WUHU216HW,2013-01-19 20:53:00,
2013-01-19 12:58:00,32.0,30.8,30.04,North,0,0.0,0.0,95,0.00,,,0.00,WUHU216HW,2013-01-19 20:58:00,
2013-01-19 13:03:00,32.0,30.8,30.04,North,0,0.0,0.0,95,0.00,,,0.00,WUHU216HW,2013-01-19 21:03:00,
2013-01-19 13:09:00,32.0,30.8,30.04,North,0,0.0,0.0,95,0.00,,,0.00,WUHU216HW,2013-01-19 21:09:00,
2013-01-19 13:14:00,32.0,30.8,30.04,North,0,0.0,0.0,95,0.00,,,0.00,WUHU216HW,2013-01-19 21:14:00,
2013-01-19 13:20:00,32.0,30.8,30.04,North,0,0.0,0.0,95,0.00,,,0.00,WUHU216HW,2013-01-19 21:20:00,
2013-01-19 13:25:00,32.0,30.8,30.04,North,0,0.0,0.0,95,0.00,,,0.00,WUHU216HW,2013-01-19 21:25:00,
2013-01-19 13:30:00,32.2,31.0,30.04,North,0,0.0,0.0,95,0.00,,,0.00,WUHU216HW,2013-01-19 21:30:00,
2013-01-19 13:35:00,32.4,31.2,30.04,North,0,0.0,0.0,95,0.00,,,0.00,WUHU216HW,2013-01-19 21:35:00,
2013-01-19 13:41:00,32.6,31.3,30.04,North,0,0.0,0.0,95,0.00,,,0.00,WUHU216HW,2013-01-19 21:41:00,
2013-01-19 13:46:00,32.8,31.5,30.04,North,0,0.0,0.0,95,0.00,,,0.00,WUHU216HW,2013-01-19 21:46:00,
2013-01-19 13:51:00,32.8,31.5,30.04,North,0,0.0,0.0,95,0.00,,,0.00,WUHU216HW,2013-01-19 21:51:00,
2013-01-19 13:57:00,32.8,31.2,30.03,North,0,0.0,0.0,94,0.00,,,0.00,WUHU216HW,2013-01-19 21:57:00,
2013-01-19 14:02:00,32.8,31.2,30.03,North,0,0.0,0.0,94,0.00,,,0.00,WUHU216HW,2013-01-19 22:02:00,
2013-01-19 14:07:00,32.8,31.2,30.03,North,0,0.0,0.0,94,0.00,,,0.00,WUHU216HW,2013-01-19 22:07:00,
2013-01-19 14:12:00,32.8,31.2,30.03,North,0,0.0,0.0,94,0.00,,,0.00,WUHU216HW,2013-01-19 22:12:00,
2013-01-19 14:17:00,33.1,31.5,30.03,North,0,0.0,0.0,94,0.00,,,0.00,WUHU216HW,2013-01-19 22:17:00,
2013-01-19 14:22:00,33.1,31.5,30.03,North,0,0.0,0.0,94,0.00,,,0.00,WUHU216HW,2013-01-19 22:22:00,
2013-01-19 14:27:00,32.9,31.4,30.03,North,0,0.0,0.0,94,0.00,,,0.00,WUHU216HW,2013-01-19 22:27:00,
2013-01-19 14:32:00,32.9,31.4,30.03,North,0,0.0,0.0,94,0.00,,,0.00,WUHU216HW,2013-01-19 22:32:00,
2013-01-19 14:38:00,33.1,31.5,30.03,North,0,0.0,0.0,94,0.00,,,0.00,WUHU216HW,2013-01-19 22:38:00,
2013-01-19 14:43:00,33.1,31.5,30.03,North,0,0.0,0.0,94,0.00,,,0.00,WUHU216HW,2013-01-19 22:43:00,
2013-01-19 14:48:00,33.1,31.5,30.03,North,0,0.0,0.0,94,0.00,,,0.00,WUHU216HW,2013-01-19 22:48:00,
2013-01-19 14:53:00,33.1,31.5,30.03,North,0,0.0,0.0,94,0.00,,,0.00,WUHU216HW,2013-01-19 22:53:00,
2013-01-19 14:58:00,33.1,31.5,30.03,North,0,0.0,0.0,94,0.00,,,0.00,WUHU216HW,2013-01-19 22:58:00,
2013-01-19 15:03:00,33.3,31.7,30.03,North,0,0.0,0.0,94,0.00,,,0.00,WUHU216HW,2013-01-19 23:03:00,
2013-01-19 15:08:00,33.3,31.7,30.03,North,0,0.0,0.0,94,0.00,,,0.00,WUHU216HW,2013-01-19 23:08:00,
2013-01-19 15:13:00,33.3,31.7,30.03,North,0,0.0,0.0,94,0.00,,,0.00,WUHU216HW,2013-01-19 23:13:00,
2013-01-19 15:19:00,33.3,32.0,30.03,North,0,0.0,0.0,95,0.00,,,0.00,WUHU216HW,2013-01-19 23:19:00,
2013-01-19 15:24:00,33.5,32.1,30.03,North,0,0.0,0.0,95,0.00,,,0.00,WUHU216HW,2013-01-19 23:24:00,
2013-01-19 15:29:00,33.5,31.9,30.03,North,0,0.0,0.0,94,0.00,,,0.00,WUHU216HW,2013-01-19 23:29:00,
2013-01-19 15:34:00,33.5,32.1,30.03,North,0,0.0,0.0,95,0.00,,,0.00,WUHU216HW,2013-01-19 23:34:00,
2013-01-19 15:39:00,33.7,32.0,30.03,North,0,0.0,0.0,94,0.00,,,0.00,WUHU216HW,2013-01-19 23:39:00,
2013-01-19 15:44:00,33.7,32.0,30.03,North,0,0.0,0.0,94,0.00,,,0.00,WUHU216HW,2013-01-19 23:44:00,
2013-01-19 15:49:00,33.7,32.0,30.04,North,0,0.0,0.0,94,0.00,,,0.00,WUHU216HW,2013-01-19 23:49:00,
2013-01-19 15:54:00,33.8,32.2,30.03,North,0,0.0,0.0,94,0.00,,,0.00,WUHU216HW,2013-01-19 23:54:00,
2013-01-19 16:00:00,33.8,32.2,30.04,North,0,0.0,0.0,94,0.00,,,0.00,WUHU216HW,2013-01-20 00:00:00,
2013-01-19 16:05:00,33.8,32.2,30.04,North,0,0.0,0.0,94,0.00,,,0.00,WUHU216HW,2013-01-20 00:05:00,
2013-01-19 16:10:00,33.8,32.2,30.04,North,0,0.0,0.0,94,0.00,,,0.00,WUHU216HW,2013-01-20 00:10:00,
2013-01-19 16:15:00,33.8,32.2,30.04,North,0,0.0,0.0,94,0.00,,,0.00,WUHU216HW,2013-01-20 00:15:00,
2013-01-19 16:20:00,33.8,32.5,30.04,North,0,0.0,0.0,95,0.00,,,0.00,WUHU216HW,2013-01-20 00:20:00,
2013-01-19 16:26:00,33.8,32.5,30.04,North,0,0.0,0.0,95,0.00,,,0.00,WUHU216HW,2013-01-20 00:26:00,
2013-01-19 16:32:00,33.8,32.2,30.04,North,0,0.0,0.0,94,0.00,,,0.00,WUHU216HW,2013-01-20 00:32:00,
2013-01-19 16:37:00,33.8,32.5,30.04,North,0,0.0,0.0,95,0.00,,,0.00,WUHU216HW,2013-01-20 00:37:00,
2013-01-19 16:42:00,33.8,32.5,30.04,North,0,0.0,0.0,95,0.00,,,0.00,WUHU216HW,2013-01-20 00:42:00,
2013-01-19 16:47:00,33.8,32.5,30.04,North,0,0.0,0.0,95,0.00,,,0.00,WUHU216HW,2013-01-20 00:47:00,
2013-01-19 16:52:00,33.8,32.5,30.04,North,0,0.0,0.0,95,0.00,,,0.00,WUHU216HW,2013-01-20 00:52:00,
2013-01-19 16:57:00,33.8,32.5,30.04,North,0,0.0,0.0,95,0.00,,,0.00,WUHU216HW,2013-01-20 00:57:00,
2013-01-19 17:02:00,33.8,32.5,30.04,North,0,0.0,0.0,95,0.00,,,0.00,WUHU216HW,2013-01-20 01:02:00,
2013-01-19 17:07:00,33.8,32.5,30.04,North,0,0.0,0.0,95,0.00,,,0.00,WUHU216HW,2013-01-20 01:07:00,
2013-01-19 17:12:00,33.8,32.5,30.04,North,0,0.0,0.0,95,0.00,,,0.00,WUHU216HW,2013-01-20 01:12:00,
2013-01-19 17:18:00,33.8,32.5,30.04,North,0,0.0,0.0,95,0.00,,,0.00,WUHU216HW,2013-01-20 01:18:00,
2013-01-19 17:23:00,33.8,32.5,30.04,North,0,0.0,0.0,95,0.00,,,0.00,WUHU216HW,2013-01-20 01:23:00,
2013-01-19 17:28:00,33.8,32.5,30.04,North,0,0.0,0.0,95,0.00,,,0.00,WUHU216HW,2013-01-20 01:28:00,
2013-01-19 17:33:00,33.8,32.5,30.04,North,0,0.0,0.0,95,0.00,,,0.00,WUHU216HW,2013-01-20 01:33:00,
2013-01-19 17:38:00,33.8,32.5,30.04,North,0,0.0,0.0,95,0.00,,,0.00,WUHU216HW,2013-01-20 01:38:00,
2013-01-19 17:43:00,33.8,32.5,30.04,North,0,0.0,0.0,95,0.00,,,0.00,WUHU216HW,2013-01-20 01:43:00,
2013-01-19 17:48:00,33.8,32.5,30.04,North,0,0.0,0.0,95,0.00,,,0.00,WUHU216HW,2013-01-20 01:48:00,
2013-01-19 17:54:00,33.8,32.5,30.04,North,0,0.0,0.0,95,0.00,,,0.00,WUHU216HW,2013-01-20 01:54:00,
2013-01-19 18:00:00,33.8,32.5,30.04,North,0,0.0,0.0,95,0.00,,,0.00,WUHU216HW,2013-01-20 02:00:00,
2013-01-19 18:05:00,33.8,32.5,30.04,North,0,0.0,0.0,95,0.00,,,0.00,WUHU216HW,2013-01-20 02:05:00,
2013-01-19 18:10:00,33.8,32.5,30.04,North,0,0.0,0.0,95,0.00,,,0.00,WUHU216HW,2013-01-20 02:10:00,
2013-01-19 18:15:00,33.8,32.5,30.04,North,0,0.0,0.0,95,0.00,,,0.00,WUHU216HW,2013-01-20 02:15:00,
2013-01-19 18:20:00,33.8,32.5,30.04,North,0,0.0,0.0,95,0.00,,,0.00,WUHU216HW,2013-01-20 02:20:00,
2013-01-19 18:25:00,33.8,32.5,30.04,North,0,0.0,0.0,95,0.00,,,0.00,WUHU216HW,2013-01-20 02:25:00,
2013-01-19 18:30:00,33.8,32.5,30.04,North,0,0.0,0.0,95,0.00,,,0.00,WUHU216HW,2013-01-20 02:30:00,
2013-01-19 18:35:00,33.8,32.5,30.04,North,0,0.0,0.0,95,0.00,,,0.00,WUHU216HW,2013-01-20 02:35:00,
2013-01-19 18:40:00,33.8,32.5,30.04,North,0,0.0,0.0,95,0.00,,,0.00,WUHU216HW,2013-01-20 02:40:00,
2013-01-19 18:45:00,33.8,32.5,30.04,North,0,0.0,0.0,95,0.00,,,0.00,WUHU216HW,2013-01-20 02:45:00,
2013-01-19 18:50:00,33.8,32.5,30.04,North,0,0.0,0.0,95,0.00,,,0.00,WUHU216HW,2013-01-20 02:50:00,
2013-01-19 18:55:00,33.8,32.5,30.04,North,0,0.0,0.0,95,0.00,,,0.00,WUHU216HW,2013-01-20 02:55:00,
2013-01-19 19:00:00,33.8,32.5,30.05,North,0,0.0,0.0,95,0.00,,,0.00,WUHU216HW,2013-01-20 03:00:00,
2013-01-19 19:05:00,33.8,32.5,30.05,North,0,0.0,0.0,95,0.00,,,0.00,WUHU216HW,2013-01-20 03:05:00,
2013-01-19 19:10:00,33.8,32.5,30.05,North,0,0.0,0.0,95,0.00,,,0.00,WUHU216HW,2013-01-20 03:10:00,
2013-01-19 19:15:00,33.8,32.5,30.05,North,0,0.0,0.0,95,0.00,,,0.00,WUHU216HW,2013-01-20 03:15:00,
2013-01-19 19:21:00,33.8,32.5,30.05,North,0,0.0,0.0,95,0.00,,,0.00,WUHU216HW,2013-01-20 03:21:00,
2013-01-19 19:27:00,33.8,32.5,30.05,North,0,0.0,0.0,95,0.00,,,0.00,WUHU216HW,2013-01-20 03:27:00,
2013-01-19 19:32:00,33.8,32.5,30.05,North,0,0.0,0.0,95,0.00,,,0.00,WUHU216HW,2013-01-20 03:32:00,
2013-01-19 19:37:00,33.8,32.5,30.05,North,0,0.0,0.0,95,0.00,,,0.00,WUHU216HW,2013-01-20 03:37:00,
2013-01-19 19:42:00,33.8,32.2,30.05,North,0,0.0,0.0,94,0.00,,,0.00,WUHU216HW,2013-01-20 03:42:00,
2013-01-19 19:47:00,33.8,32.5,30.05,North,0,0.0,0.0,95,0.00,,,0.00,WUHU216HW,2013-01-20 03:47:00,
2013-01-19 19:52:00,33.8,32.5,30.05,North,0,0.0,0.0,95,0.00,,,0.00,WUHU216HW,2013-01-20 03:52:00,
2013-01-19 19:57:00,33.7,32.3,30.05,North,0,0.0,0.0,95,0.00,,,0.00,WUHU216HW,2013-01-20 03:57:00,
2013-01-19 20:02:00,33.7,32.3,30.06,North,0,0.0,0.0,95,0.00,,,0.00,WUHU216HW,2013-01-20 04:02:00,
2013-01-19 20:07:00,33.7,32.3,30.05,North,0,0.0,0.0,95,0.00,,,0.00,WUHU216HW,2013-01-20 04:07:00,
2013-01-19 20:13:00,33.7,32.3,30.06,North,0,0.0,0.0,95,0.00,,,0.00,WUHU216HW,2013-01-20 04:13:00,
2013-01-19 20:18:00,33.7,32.3,30.06,North,0,0.0,0.0,95,0.00,,,0.00,WUHU216HW,2013-01-20 04:18:00,
2013-01-19 20:23:00,33.5,32.1,30.06,North,0,0.0,0.0,95,0.00,,,0.00,WUHU216HW,2013-01-20 04:23:00,
2013-01-19 20:28:00,33.5,32.1,30.06,North,0,0.0,0.0,95,0.00,,,0.00,WUHU216HW,2013-01-20 04:28:00,
2013-01-19 20:33:00,33.5,32.1,30.06,North,0,0.0,0.0,95,0.00,,,0.00,WUHU216HW,2013-01-20 04:33:00,
2013-01-19 20:38:00,33.5,32.1,30.06,North,0,0.0,0.0,95,0.00,,,0.00,WUHU216HW,2013-01-20 04:38:00,
2013-01-19 20:43:00,33.5,32.1,30.06,North,0,0.0,0.0,95,0.00,,,0.00,WUHU216HW,2013-01-20 04:43:00,
2013-01-19 20:48:00,33.5,32.1,30.06,North,0,0.0,0.0,95,0.00,,,0.00,WUHU216HW,2013-01-20 04:48:00,
2013-01-19 20:53:00,33.5,32.1,30.06,North,0,0.0,0.0,95,0.00,,,0.00,WUHU216HW,2013-01-20 04:53:00,
2013-01-19 20:58:00,33.5,32.1,30.06,North,0,0.0,0.0,95,0.00,,,0.00,WUHU216HW,2013-01-20 04:58:00,
2013-01-19 21:00:00,33.5,32.1,30.06,North,0,0.0,0.0,95,0.00,,,0.00,WUHU216HW,2013-01-20 05:00:00,
2013-01-19 21:03:00,33.3,32.0,30.06,North,0,0.0,0.0,95,0.00,,,0.00,WUHU216HW,2013-01-20 05:03:00,
2013-01-19 21:08:00,33.1,31.8,30.06,North,0,0.0,0.0,95,0.00,,,0.00,WUHU216HW,2013-01-20 05:08:00,
2013-01-19 21:13:00,33.1,31.8,30.06,North,0,0.0,0.0,95,0.00,,,0.00,WUHU216HW,2013-01-20 05:13:00,
2013-01-19 21:18:00,32.9,31.7,30.07,North,0,0.0,0.0,95,0.00,,,0.00,WUHU216HW,2013-01-20 05:18:00,
2013-01-19 21:23:00,32.9,31.7,30.07,North,0,0.0,0.0,95,0.00,,,0.00,WUHU216HW,2013-01-20 05:23:00,
2013-01-19 21:28:00,32.9,31.7,30.06,North,0,0.0,0.0,95,0.00,,,0.00,WUHU216HW,2013-01-20 05:28:00,
2013-01-19 21:33:00,32.9,31.7,30.06,North,0,0.0,0.0,95,0.00,,,0.00,WUHU216HW,2013-01-20 05:33:00,
2013-01-19 21:38:00,32.8,31.5,30.06,North,0,0.0,0.0,95,0.00,,,0.00,WUHU216HW,2013-01-20 05:38:00,
2013-01-19 21:43:00,32.8,31.5,30.06,North,0,0.0,0.0,95,0.00,,,0.00,WUHU216HW,2013-01-20 05:43:00,
2013-01-19 21:48:00,32.8,31.5,30.06,North,0,0.0,0.0,95,0.00,,,0.00,WUHU216HW,2013-01-20 05:48:00,
2013-01-19 21:53:00,32.8,31.5,30.06,North,0,0.0,0.0,95,0.00,,,0.00,WUHU216HW,2013-01-20 05:53:00,
2013-01-19 21:58:00,32.8,31.5,30.06,North,0,0.0,0.0,95,0.00,,,0.00,WUHU216HW,2013-01-20 05:58:00,
2013-01-19 22:03:00,32.8,31.5,30.06,North,0,0.0,0.0,95,0.00,,,0.00,WUHU216HW,2013-01-20 06:03:00,
2013-01-19 22:08:00,32.6,31.3,30.06,North,0,0.0,0.0,95,0.00,,,0.00,WUHU216HW,2013-01-20 06:08:00,
2013-01-19 22:13:00,32.6,31.3,30.07,North,0,0.0,0.0,95,0.00,,,0.00,WUHU216HW,2013-01-20 06:13:00,
2013-01-19 22:18:00,32.6,31.3,30.07,North,0,0.0,0.0,95,0.00,,,0.00,WUHU216HW,2013-01-20 06:18:00,
2013-01-19 22:23:00,32.4,31.2,30.06,North,0,0.0,0.0,95,0.00,,,0.00,WUHU216HW,2013-01-20 06:23:00,
2013-01-19 22:28:00,32.6,31.3,30.06,North,0,0.0,0.0,95,0.00,,,0.00,WUHU216HW,2013-01-20 06:28:00,
2013-01-19 22:33:00,32.6,31.3,30.06,North,0,0.0,0.0,95,0.00,,,0.00,WUHU216HW,2013-01-20 06:33:00,
2013-01-19 22:38:00,32.4,31.2,30.06,North,0,0.0,0.0,95,0.00,,,0.00,WUHU216HW,2013-01-20 06:38:00,
2013-01-19 22:43:00,32.4,31.2,30.07,North,0,0.0,0.0,95,0.00,,,0.00,WUHU216HW,2013-01-20 06:43:00,
2013-01-19 22:48:00,32.2,31.0,30.07,North,0,0.0,0.0,95,0.00,,,0.00,WUHU216HW,2013-01-20 06:48:00,
2013-01-19 22:53:00,32.2,31.0,30.07,North,0,0.0,0.0,95,0.00,,,0.00,WUHU216HW,2013-01-20 06:53:00,
2013-01-19 22:58:00,32.0,30.8,30.06,North,0,0.0,0.0,95,0.00,,,0.00,WUHU216HW,2013-01-20 06:58:00,
2013-01-19 23:03:00,32.0,30.8,30.07,North,0,0.0,0.0,95,0.00,,,0.00,WUHU216HW,2013-01-20 07:03:00,
2013-01-19 23:08:00,31.9,30.6,30.07,North,0,0.0,0.0,95,0.00,,,0.00,WUHU216HW,2013-01-20 07:08:00,
2013-01-19 23:13:00,31.9,30.6,30.06,North,0,0.0,0.0,95,0.00,,,0.00,WUHU216HW,2013-01-20 07:13:00,
2013-01-19 23:18:00,32.0,30.8,30.06,North,0,0.0,0.0,95,0.00,,,0.00,WUHU216HW,2013-01-20 07:18:00,
2013-01-19 23:23:00,32.0,30.8,30.07,North,0,0.0,0.0,95,0.00,,,0.00,WUHU216HW,2013-01-20 07:23:00,
2013-01-19 23:28:00,32.0,30.8,30.06,North,0,0.0,0.0,95,0.00,,,0.00,WUHU216HW,2013-01-20 07:28:00,
2013-01-19 23:33:00,32.0,30.8,30.06,North,0,0.0,0.0,95,0.00,,,0.00,WUHU216HW,2013-01-20 07:33:00,
2013-01-19 23:38:00,32.0,30.8,30.06,North,0,0.0,0.0,95,0.00,,,0.00,WUHU216HW,2013-01-20 07:38:00,
2013-01-19 23:43:00,32.0,30.8,30.06,North,0,0.0,0.0,95,0.00,,,0.00,WUHU216HW,2013-01-20 07:43:00,
2013-01-19 23:48:00,31.9,30.6,30.06,North,0,0.0,0.0,95,0.00,,,0.00,WUHU216HW,2013-01-20 07:48:00,
2013-01-19 23:53:00,31.9,30.6,30.06,North,0,0.0,0.0,95,0.00,,,0.00,WUHU216HW,2013-01-20 07:53:00,
2013-01-19 23:58:00,31.9,30.6,30.07,North,0,0.0,0.0,95,0.00,,,0.00,WUHU216HW,2013-01-20 07:58:00,